Time;durP1;ratioP1;P1;durP2;ratioP2;P2;SDS_P1;SDS_P2;PMS_P1;PMS_P2;Temp;Humidity;BMP_temperature;BMP_pressure;BME280_temperature;BME280_humidity;BME280_pressure;Samples;Min_cycle;Max_cycle;Signal;HPM_P1;HPM_P2
2023/05/22 00:00:20;;;;;;;;;;;18.30;93.90;;;;;;4787805;29;20563;-77
2023/05/22 00:02:47;;;;;;;;;;;18.30;94.10;;;;;;4771127;29;19936;-77
2023/05/22 00:05:14;;;;;;;;;;;18.30;94.40;;;;;;4786255;29;20738;-77
2023/05/22 00:07:41;;;;;;;;;;;18.20;94.90;;;;;;4776027;29;19990;-77
2023/05/22 00:10:09;;;;;;;;;;;18.30;96.30;;;;;;4795097;29;20682;-77
2023/05/22 00:12:36;;;;;;;;;;;18.20;96.40;;;;;;4775432;29;20008;-77
2023/05/22 00:15:04;;;;;;;;;;;18.20;96.70;;;;;;4799132;29;20040;-77
2023/05/22 00:17:32;;;;;;;;;;;18.10;97.50;;;;;;4782634;29;19936;-77
2023/05/22 00:20:06;;;;;;;;;;;18.10;97.60;;;;;;4789567;29;19937;-77
2023/05/22 00:22:34;;;;;;;;;;;18.00;97.50;;;;;;4760362;29;19937;-77
2023/05/22 00:25:02;;;;;;;;;;;18.00;98.30;;;;;;4771542;29;19936;-77
2023/05/22 00:27:29;;;;;;;;;;;18.00;98.20;;;;;;4798969;29;20373;-77
2023/05/22 00:29:57;;;;;;;;;;;17.90;98.30;;;;;;4787035;29;20418;-77
2023/05/22 00:32:24;;;;;;;;;;;17.80;98.30;;;;;;4788806;29;20261;-77
2023/05/22 00:34:51;;;;;;;;;;;17.70;98.40;;;;;;4793554;29;19936;-77
2023/05/22 00:37:19;;;;;;;;;;;17.60;98.90;;;;;;4791385;29;19937;-77
2023/05/22 00:39:46;;;;;;;;;;;17.50;99.20;;;;;;4771835;29;20495;-77
2023/05/22 00:42:13;;;;;;;;;;;17.60;99.40;;;;;;4775369;29;20680;-77
2023/05/22 00:44:40;;;;;;;;;;;17.50;99.20;;;;;;4772717;29;22308;-77
2023/05/22 00:47:08;;;;;;;;;;;16.20;99.00;;;;;;4785463;29;19936;-77
2023/05/22 00:49:35;;;;;;;;;;;17.00;99.70;;;;;;4770430;29;19937;-77
2023/05/22 00:52:02;;;;;;;;;;;16.70;99.90;;;;;;4782065;29;19936;-77
2023/05/22 00:54:30;;;;;;;;;;;17.20;99.20;;;;;;4779850;29;19932;-77
2023/05/22 00:56:59;;;;;;;;;;;17.40;99.10;;;;;;4770336;29;20075;-77
2023/05/22 00:59:28;;;;;;;;;;;17.20;98.10;;;;;;4775002;29;20312;-77
2023/05/22 01:01:56;;;;;;;;;;;17.40;97.80;;;;;;4786493;29;19937;-76
2023/05/22 01:04:24;;;;;;;;;;;17.50;97.50;;;;;;4814641;29;19973;-77
2023/05/22 01:06:51;;;;;;;;;;;17.50;97.10;;;;;;4812053;29;19943;-78
2023/05/22 01:09:18;;;;;;;;;;;17.30;96.20;;;;;;4784586;29;20027;-78
2023/05/22 01:11:52;;;;;;;;;;;17.30;95.90;;;;;;4774898;29;20055;-78
2023/05/22 01:14:28;;;;;;;;;;;17.20;95.60;;;;;;4783571;29;20528;-77
2023/05/22 01:17:07;;;;;;;;;;;17.20;95.60;;;;;;4793037;29;19936;-77
2023/05/22 01:19:39;;;;;;;;;;;17.30;96.00;;;;;;4803184;29;19943;-77
2023/05/22 01:22:20;;;;;;;;;;;17.40;95.70;;;;;;4783115;29;20032;-77
2023/05/22 01:24:53;;;;;;;;;;;17.30;95.80;;;;;;4775185;29;19943;-77
2023/05/22 01:27:24;;;;;;;;;;;17.40;95.30;;;;;;4786823;29;19943;-77
2023/05/22 01:30:11;;;;;;;;;;;17.70;95.60;;;;;;4775303;29;20504;-77
2023/05/22 01:32:39;;;;;;;;;;;17.20;95.30;;;;;;4796458;29;20041;-77
2023/05/22 01:35:09;;;;;;;;;;;17.00;95.90;;;;;;4778583;29;19945;-77
2023/05/22 01:37:37;;;;;;;;;;;17.00;95.90;;;;;;4787715;29;20402;-77
2023/05/22 01:40:06;;;;;;;;;;;17.10;96.20;;;;;;4761429;29;19979;-78
2023/05/22 01:42:33;;;;;;;;;;;17.20;96.10;;;;;;4748966;29;20071;-77
2023/05/22 01:45:00;;;;;;;;;;;17.00;95.80;;;;;;4785441;29;19928;-77
2023/05/22 01:47:27;;;;;;;;;;;17.10;96.20;;;;;;4773607;29;20081;-77
2023/05/22 01:49:56;;;;;;;;;;;17.10;96.40;;;;;;4778862;29;19943;-77
2023/05/22 01:52:47;;;;;;;;;;;18.20;96.70;;;;;;4777042;29;19936;-77
2023/05/22 01:55:26;;;;;;;;;;;17.20;96.30;;;;;;4777658;29;19936;-77
2023/05/22 01:58:09;;;;;;;;;;;17.20;96.50;;;;;;4778478;29;19975;-77
2023/05/22 02:00:37;;;;;;;;;;;17.20;96.60;;;;;;4789247;29;19941;-77
2023/05/22 02:03:12;;;;;;;;;;;17.20;96.90;;;;;;4758847;29;19936;-77
2023/05/22 02:05:41;;;;;;;;;;;17.10;96.70;;;;;;4776713;29;19944;-77
2023/05/22 02:08:09;;;;;;;;;;;17.40;97.00;;;;;;4771059;29;19944;-77
2023/05/22 02:10:40;;;;;;;;;;;17.00;97.20;;;;;;4784459;29;20065;-77
2023/05/22 02:13:09;;;;;;;;;;;17.00;97.20;;;;;;4773449;29;19937;-77
2023/05/22 02:15:37;;;;;;;;;;;17.10;97.40;;;;;;4761996;29;19936;-77
2023/05/22 02:18:08;;;;;;;;;;;17.00;97.30;;;;;;4776668;29;19936;-77
2023/05/22 02:20:35;;;;;;;;;;;17.00;97.50;;;;;;4786357;29;20004;-77
2023/05/22 02:23:03;;;;;;;;;;;17.10;97.70;;;;;;4768976;29;19937;-77
2023/05/22 02:25:30;;;;;;;;;;;17.00;98.20;;;;;;4789836;29;19936;-77
2023/05/22 02:27:58;;;;;;;;;;;16.90;98.00;;;;;;4782058;29;19933;-77
2023/05/22 02:30:26;;;;;;;;;;;17.00;98.30;;;;;;4773303;29;19992;-77
2023/05/22 02:32:56;;;;;;;;;;;16.90;98.40;;;;;;4786587;29;19937;-77
2023/05/22 02:35:23;;;;;;;;;;;16.90;98.20;;;;;;4780773;29;20028;-77
2023/05/22 02:37:53;;;;;;;;;;;16.80;98.30;;;;;;4774600;29;20044;-77
2023/05/22 02:40:21;;;;;;;;;;;16.80;98.50;;;;;;4775416;29;19937;-77
2023/05/22 02:42:48;;;;;;;;;;;16.80;98.70;;;;;;4775822;29;19937;-77
2023/05/22 02:45:17;;;;;;;;;;;16.60;99.10;;;;;;4774851;29;20036;-78
2023/05/22 02:47:47;;;;;;;;;;;16.50;99.10;;;;;;4779450;29;19936;-77
2023/05/22 02:50:14;;;;;;;;;;;16.40;99.90;;;;;;4786823;29;19937;-77
2023/05/22 02:52:44;;;;;;;;;;;16.50;99.90;;;;;;4787763;29;19984;-77
2023/05/22 02:55:11;;;;;;;;;;;16.70;99.90;;;;;;4775151;29;19936;-77
2023/05/22 02:57:38;;;;;;;;;;;16.70;99.90;;;;;;4774950;29;20018;-77
2023/05/22 03:00:06;;;;;;;;;;;16.70;99.90;;;;;;4761426;29;20027;-77
2023/05/22 03:02:33;;;;;;;;;;;16.70;99.60;;;;;;4774602;29;19976;-77
2023/05/22 03:05:00;;;;;;;;;;;16.60;99.40;;;;;;4770861;29;19928;-77
2023/05/22 03:07:30;;;;;;;;;;;16.60;99.40;;;;;;4779499;29;20326;-79
2023/05/22 03:09:57;;;;;;;;;;;16.60;99.20;;;;;;4760142;29;19985;-77
2023/05/22 03:12:25;;;;;;;;;;;16.50;99.60;;;;;;4787385;29;19937;-77
2023/05/22 03:14:52;;;;;;;;;;;16.50;99.40;;;;;;4772282;29;20436;-77
2023/05/22 03:17:19;;;;;;;;;;;16.50;98.90;;;;;;4789579;29;19943;-78
2023/05/22 03:19:46;;;;;;;;;;;16.50;98.70;;;;;;4784877;29;20613;-77
2023/05/22 03:22:14;;;;;;;;;;;16.30;98.80;;;;;;4759101;29;19937;-77
2023/05/22 03:24:41;;;;;;;;;;;16.40;98.90;;;;;;4788748;29;19936;-77
2023/05/22 03:27:10;;;;;;;;;;;16.60;99.10;;;;;;4787533;29;20015;-77
2023/05/22 03:29:40;;;;;;;;;;;16.50;98.10;;;;;;4777392;29;20532;-77
2023/05/22 03:32:07;;;;;;;;;;;16.50;98.00;;;;;;4772731;29;19936;-77
2023/05/22 03:34:35;;;;;;;;;;;16.30;97.80;;;;;;4799349;29;19936;-77
2023/05/22 03:37:04;;;;;;;;;;;16.30;97.60;;;;;;4770006;29;19944;-77
2023/05/22 03:39:31;;;;;;;;;;;16.20;97.00;;;;;;4770523;29;22362;-77
2023/05/22 03:42:05;;;;;;;;;;;16.40;97.20;;;;;;4776386;29;19936;-77
2023/05/22 03:44:32;;;;;;;;;;;16.40;96.70;;;;;;4786077;29;20380;-77
2023/05/22 03:47:00;;;;;;;;;;;16.40;96.60;;;;;;4758472;29;19929;-77
2023/05/22 03:49:29;;;;;;;;;;;16.30;96.50;;;;;;4788439;29;20392;-78
2023/05/22 03:51:56;;;;;;;;;;;16.00;96.70;;;;;;4762984;29;20701;-77
2023/05/22 03:54:23;;;;;;;;;;;16.40;96.60;;;;;;4772013;29;19936;-77
2023/05/22 03:56:50;;;;;;;;;;;16.50;96.80;;;;;;4776089;29;19937;-77
2023/05/22 03:59:18;;;;;;;;;;;16.70;97.30;;;;;;4753622;29;19944;-77
2023/05/22 04:01:46;;;;;;;;;;;16.70;96.20;;;;;;4769226;29;19936;-77
2023/05/22 04:04:13;;;;;;;;;;;16.70;95.40;;;;;;4756539;29;19992;-77
2023/05/22 04:06:41;;;;;;;;;;;16.70;94.80;;;;;;4771155;29;19937;-77
2023/05/22 04:09:12;;;;;;;;;;;16.70;94.80;;;;;;4790341;29;19967;-78
2023/05/22 04:11:39;;;;;;;;;;;16.70;94.20;;;;;;4779668;29;20003;-79
2023/05/22 04:14:06;;;;;;;;;;;16.00;94.10;;;;;;4774470;29;21034;-78
2023/05/22 04:16:33;;;;;;;;;;;16.90;94.30;;;;;;4784361;29;20441;-77
2023/05/22 04:19:02;;;;;;;;;;;18.10;94.20;;;;;;4786103;29;19932;-78
2023/05/22 04:21:32;;;;;;;;;;;17.00;94.20;;;;;;4780919;29;19989;-78
2023/05/22 04:24:01;;;;;;;;;;;17.30;94.70;;;;;;4786545;29;19932;-78
2023/05/22 04:26:30;;;;;;;;;;;17.00;95.50;;;;;;4776242;29;19935;-78
2023/05/22 04:28:58;;;;;;;;;;;16.90;95.90;;;;;;4771455;29;19937;-78
2023/05/22 04:31:27;;;;;;;;;;;16.80;96.30;;;;;;4770791;29;20380;-78
2023/05/22 04:33:54;;;;;;;;;;;17.10;96.30;;;;;;4758878;29;22244;-77
2023/05/22 04:36:24;;;;;;;;;;;17.10;96.90;;;;;;4787274;29;19937;-77
2023/05/22 04:38:52;;;;;;;;;;;17.10;97.60;;;;;;4782264;29;20019;-77
2023/05/22 04:41:21;;;;;;;;;;;17.10;97.10;;;;;;4781629;29;19943;-77
2023/05/22 04:43:51;;;;;;;;;;;17.10;97.30;;;;;;4788806;29;19928;-77
2023/05/22 04:46:19;;;;;;;;;;;17.20;97.30;;;;;;4791296;29;20111;-77
2023/05/22 04:48:46;;;;;;;;;;;17.30;96.80;;;;;;4764615;29;20301;-77
2023/05/22 04:51:14;;;;;;;;;;;17.30;95.90;;;;;;4779822;29;20660;-79
2023/05/22 04:53:42;;;;;;;;;;;17.30;95.60;;;;;;4771824;29;20415;-79
2023/05/22 04:56:09;;;;;;;;;;;17.40;97.10;;;;;;4791616;29;19929;-79
2023/05/22 04:58:39;;;;;;;;;;;17.40;96.80;;;;;;4771745;29;19973;-79
2023/05/22 05:01:06;;;;;;;;;;;17.50;96.90;;;;;;4787223;29;19988;-79
2023/05/22 05:03:33;;;;;;;;;;;17.60;96.30;;;;;;4772148;29;20083;-79
2023/05/22 05:06:00;;;;;;;;;;;17.70;96.20;;;;;;4798783;29;19936;-79
2023/05/22 05:08:27;;;;;;;;;;;17.70;96.00;;;;;;4793153;29;20381;-79
2023/05/22 05:10:54;;;;;;;;;;;17.60;95.00;;;;;;4774302;29;20027;-79
2023/05/22 05:13:22;;;;;;;;;;;17.60;93.50;;;;;;4775665;29;20088;-78
2023/05/22 05:15:49;;;;;;;;;;;17.60;94.10;;;;;;4755781;29;20754;-78
2023/05/22 05:18:18;;;;;;;;;;;17.70;94.70;;;;;;4781114;29;20032;-79
2023/05/22 05:20:45;;;;;;;;;;;17.80;94.60;;;;;;4776792;29;20069;-79
2023/05/22 05:23:12;;;;;;;;;;;17.80;93.60;;;;;;4782287;29;19959;-79
2023/05/22 05:25:40;;;;;;;;;;;18.10;93.10;;;;;;4794118;29;19936;-79
2023/05/22 05:28:10;;;;;;;;;;;18.40;93.20;;;;;;4777345;29;20160;-80
2023/05/22 05:30:38;;;;;;;;;;;18.60;92.40;;;;;;4783127;29;19936;-80
2023/05/22 05:33:28;;;;;;;;;;;18.80;92.30;;;;;;4785581;29;19929;-80
2023/05/22 05:36:25;;;;;;;;;;;18.90;91.80;;;;;;4783957;29;19986;-80
2023/05/22 05:38:53;;;;;;;;;;;18.90;92.00;;;;;;4773175;29;19936;-79
2023/05/22 05:41:21;;;;;;;;;;;18.90;90.90;;;;;;4786775;29;19936;-79
2023/05/22 05:43:58;;;;;;;;;;;19.00;89.90;;;;;;4759144;29;20092;-79
2023/05/22 05:46:28;;;;;;;;;;;19.00;90.60;;;;;;4783040;29;19968;-79
2023/05/22 05:48:57;;;;;;;;;;;19.20;90.40;;;;;;4775678;29;19937;-79
2023/05/22 05:51:24;;;;;;;;;;;19.20;90.50;;;;;;4792303;29;20305;-79
2023/05/22 05:53:52;;;;;;;;;;;19.40;90.00;;;;;;4802611;29;19936;-79
2023/05/22 05:56:20;;;;;;;;;;;19.40;90.10;;;;;;4776913;29;19936;-79
2023/05/22 05:58:47;;;;;;;;;;;19.70;89.10;;;;;;4790862;29;22383;-79
2023/05/22 06:01:34;;;;;;;;;;;19.90;88.30;;;;;;4800251;29;20353;-79
2023/05/22 06:04:02;;;;;;;;;;;20.00;85.70;;;;;;4785562;29;19936;-80
2023/05/22 06:06:35;;;;;;;;;;;20.10;84.30;;;;;;4768116;29;19983;-79
2023/05/22 06:09:08;;;;;;;;;;;20.10;85.80;;;;;;4783459;29;19960;-78
2023/05/22 06:11:54;;;;;;;;;;;20.20;86.20;;;;;;4785828;29;22285;-78
2023/05/22 06:14:22;;;;;;;;;;;20.40;85.70;;;;;;4757926;29;19944;-79
2023/05/22 06:16:49;;;;;;;;;;;20.40;83.70;;;;;;4773023;29;19937;-78
2023/05/22 06:19:16;;;;;;;;;;;20.50;83.50;;;;;;4776296;29;19942;-79
2023/05/22 06:21:43;;;;;;;;;;;20.30;83.50;;;;;;4766211;29;19943;-79
2023/05/22 06:24:10;;;;;;;;;;;20.40;79.50;;;;;;4787987;29;20496;-78
2023/05/22 06:26:38;;;;;;;;;;;20.40;80.30;;;;;;4771765;29;20354;-79
2023/05/22 06:29:06;;;;;;;;;;;20.50;80.00;;;;;;4776112;29;19937;-79
2023/05/22 06:31:37;;;;;;;;;;;20.60;79.80;;;;;;4769720;29;20264;-78
2023/05/22 06:34:05;;;;;;;;;;;20.80;79.70;;;;;;4802884;29;19936;-78
2023/05/22 06:36:33;;;;;;;;;;;21.00;79.60;;;;;;4778323;29;21032;-78
2023/05/22 06:39:01;;;;;;;;;;;21.10;78.40;;;;;;4768807;29;19932;-78
2023/05/22 06:41:48;;;;;;;;;;;21.30;78.20;;;;;;4758401;29;19937;-77
2023/05/22 06:44:16;;;;;;;;;;;21.20;75.20;;;;;;4775743;29;20009;-79
2023/05/22 06:46:43;;;;;;;;;;;21.40;75.40;;;;;;4799167;29;19937;-78
2023/05/22 06:49:17;;;;;;;;;;;21.40;76.90;;;;;;4785067;29;20598;-78
2023/05/22 06:51:47;;;;;;;;;;;21.40;74.80;;;;;;4775344;29;19937;-78
2023/05/22 06:54:16;;;;;;;;;;;21.50;75.80;;;;;;4779840;29;19937;-78
2023/05/22 06:56:45;;;;;;;;;;;21.50;74.30;;;;;;4756716;29;19937;-77
2023/05/22 06:59:16;;;;;;;;;;;21.60;74.40;;;;;;4773794;29;19936;-77
2023/05/22 07:02:02;;;;;;;;;;;21.70;74.10;;;;;;4785277;29;20105;-77
2023/05/22 07:04:48;;;;;;;;;;;21.70;73.60;;;;;;4768220;29;20032;-77
2023/05/22 07:07:20;;;;;;;;;;;21.80;72.80;;;;;;4755768;29;20023;-76
2023/05/22 07:09:47;;;;;;;;;;;21.60;70.20;;;;;;4783321;29;19936;-80
2023/05/22 07:12:15;;;;;;;;;;;21.70;71.70;;;;;;4776516;29;19937;-76
2023/05/22 07:14:43;;;;;;;;;;;21.80;71.50;;;;;;4775740;29;19933;-78
2023/05/22 07:17:10;;;;;;;;;;;21.90;72.90;;;;;;4767233;29;19943;-77
2023/05/22 07:19:41;;;;;;;;;;;22.00;72.90;;;;;;4753525;29;22236;-78
2023/05/22 07:22:08;;;;;;;;;;;22.10;71.70;;;;;;4780749;29;20006;-77
2023/05/22 07:24:37;;;;;;;;;;;22.30;72.30;;;;;;4782670;29;20176;-78
2023/05/22 07:27:05;;;;;;;;;;;22.00;70.30;;;;;;4782772;29;20435;-77
2023/05/22 07:29:33;;;;;;;;;;;22.30;71.90;;;;;;4765415;29;19944;-78
2023/05/22 07:32:02;;;;;;;;;;;22.40;69.90;;;;;;4767327;29;19944;-76
2023/05/22 07:34:33;;;;;;;;;;;22.30;70.30;;;;;;4764315;29;19929;-78
2023/05/22 07:37:05;;;;;;;;;;;22.20;71.20;;;;;;4787958;29;19936;-78
2023/05/22 07:39:33;;;;;;;;;;;22.30;71.40;;;;;;4781066;29;22282;-78
2023/05/22 07:42:00;;;;;;;;;;;21.90;69.50;;;;;;4768945;29;20019;-78
2023/05/22 07:44:30;;;;;;;;;;;21.70;71.40;;;;;;4754285;29;20406;-79
2023/05/22 07:46:58;;;;;;;;;;;21.70;72.80;;;;;;4769255;29;19937;-78
2023/05/22 07:49:27;;;;;;;;;;;21.60;72.50;;;;;;4769930;29;20366;-78
2023/05/22 07:51:54;;;;;;;;;;;21.80;72.00;;;;;;4800593;29;19936;-78
2023/05/22 07:54:24;;;;;;;;;;;21.90;72.90;;;;;;4770733;29;20427;-77
2023/05/22 07:56:51;;;;;;;;;;;21.70;72.10;;;;;;4771746;29;20842;-79
2023/05/22 07:59:20;;;;;;;;;;;21.50;72.40;;;;;;4791750;29;19943;-79
2023/05/22 08:01:47;;;;;;;;;;;21.30;72.30;;;;;;4782752;29;20376;-79
2023/05/22 08:04:14;;;;;;;;;;;21.30;73.40;;;;;;4772433;29;19937;-79
2023/05/22 08:06:43;;;;;;;;;;;21.30;74.10;;;;;;4779378;29;20484;-79
2023/05/22 08:09:10;;;;;;;;;;;21.60;72.80;;;;;;4779505;29;19943;-78
2023/05/22 08:11:40;;;;;;;;;;;21.60;73.10;;;;;;4767350;29;22188;-79
2023/05/22 08:14:08;;;;;;;;;;;21.60;71.40;;;;;;4779185;29;19943;-79
2023/05/22 08:16:35;;;;;;;;;;;21.60;73.70;;;;;;4752072;29;19937;-77
2023/05/22 08:19:02;;;;;;;;;;;21.30;72.40;;;;;;4769231;29;19932;-78
2023/05/22 08:21:31;;;;;;;;;;;21.20;73.40;;;;;;4769069;29;19936;-78
2023/05/22 08:23:59;;;;;;;;;;;21.10;74.50;;;;;;4757818;29;19988;-77
2023/05/22 08:26:28;;;;;;;;;;;21.00;75.60;;;;;;4773526;29;20523;-79
2023/05/22 08:28:57;;;;;;;;;;;21.00;75.90;;;;;;4770522;29;19936;-79
2023/05/22 08:31:26;;;;;;;;;;;20.90;76.90;;;;;;4772831;29;22335;-78
2023/05/22 08:34:00;;;;;;;;;;;20.80;77.20;;;;;;4768265;29;19936;-78
2023/05/22 08:36:30;;;;;;;;;;;20.80;76.70;;;;;;4771174;29;19929;-78
2023/05/22 08:38:57;;;;;;;;;;;20.70;77.00;;;;;;4804171;29;20286;-78
2023/05/22 08:41:24;;;;;;;;;;;20.70;77.70;;;;;;4784195;29;20053;-78
2023/05/22 08:43:51;;;;;;;;;;;20.60;75.60;;;;;;4783145;29;20420;-78
2023/05/22 08:46:20;;;;;;;;;;;20.70;77.80;;;;;;4766765;29;20019;-78
2023/05/22 08:48:47;;;;;;;;;;;20.70;77.80;;;;;;4776719;29;20540;-77
2023/05/22 08:51:17;;;;;;;;;;;20.80;77.60;;;;;;4773041;29;19943;-78
2023/05/22 08:53:45;;;;;;;;;;;20.80;78.40;;;;;;4771598;29;20056;-78
2023/05/22 08:56:12;;;;;;;;;;;20.80;77.60;;;;;;4768684;29;19960;-79
2023/05/22 08:58:39;;;;;;;;;;;20.80;78.00;;;;;;4770409;29;19936;-77
2023/05/22 09:01:06;;;;;;;;;;;20.80;78.20;;;;;;4768525;29;20164;-78
2023/05/22 09:03:34;;;;;;;;;;;20.80;77.40;;;;;;4781708;29;19937;-78
2023/05/22 09:06:02;;;;;;;;;;;20.80;78.80;;;;;;4782424;29;19932;-78
2023/05/22 09:08:29;;;;;;;;;;;20.70;78.50;;;;;;4782443;29;20203;-78
2023/05/22 09:10:56;;;;;;;;;;;20.80;79.10;;;;;;4784821;29;20405;-79
2023/05/22 09:13:27;;;;;;;;;;;21.30;79.00;;;;;;4784378;29;20561;-77
2023/05/22 09:15:59;;;;;;;;;;;21.20;79.10;;;;;;4797085;29;19943;-78
2023/05/22 09:18:27;;;;;;;;;;;21.50;80.70;;;;;;4771872;29;22263;-78
2023/05/22 09:20:58;;;;;;;;;;;21.70;80.30;;;;;;4768376;29;19936;-77
2023/05/22 09:23:26;;;;;;;;;;;21.60;82.70;;;;;;4773867;29;20464;-78
2023/05/22 09:25:57;;;;;;;;;;;21.40;81.00;;;;;;4793739;29;19936;-78
2023/05/22 09:28:25;;;;;;;;;;;21.40;81.40;;;;;;4778535;29;20349;-78
2023/05/22 09:30:53;;;;;;;;;;;21.30;80.10;;;;;;4797115;29;19933;-78
2023/05/22 09:33:21;;;;;;;;;;;21.30;79.30;;;;;;4792606;29;19936;-78
2023/05/22 09:35:50;;;;;;;;;;;21.90;80.20;;;;;;4805399;29;19999;-78
2023/05/22 09:38:17;;;;;;;;;;;22.20;78.20;;;;;;4774655;29;19943;-79
2023/05/22 09:40:44;;;;;;;;;;;21.90;74.70;;;;;;4779132;29;19936;-78
2023/05/22 09:43:16;;;;;;;;;;;21.60;76.20;;;;;;4795796;29;19945;-78
2023/05/22 09:45:43;;;;;;;;;;;21.80;78.70;;;;;;4798788;29;19992;-79
2023/05/22 09:48:11;;;;;;;;;;;21.80;75.80;;;;;;4791625;29;20057;-78
2023/05/22 09:50:38;;;;;;;;;;;22.10;77.20;;;;;;4787754;29;19937;-77
2023/05/22 09:53:07;;;;;;;;;;;22.00;75.80;;;;;;4789540;29;20701;-79
2023/05/22 09:55:35;;;;;;;;;;;22.30;75.90;;;;;;4770982;29;19938;-79
2023/05/22 09:58:03;;;;;;;;;;;22.20;73.30;;;;;;4771687;29;19994;-79
2023/05/22 10:00:33;;;;;;;;;;;22.10;74.50;;;;;;4801784;29;20348;-78
2023/05/22 10:03:07;;;;;;;;;;;22.10;75.60;;;;;;4765378;29;20069;-79
2023/05/22 10:05:36;;;;;;;;;;;22.20;76.10;;;;;;4785930;29;20401;-78
2023/05/22 10:08:12;;;;;;;;;;;22.40;74.50;;;;;;4784913;29;20690;-78
2023/05/22 10:10:40;;;;;;;;;;;22.40;74.60;;;;;;4772144;29;19984;-80
2023/05/22 10:13:08;;;;;;;;;;;22.50;73.00;;;;;;4781981;29;20496;-77
2023/05/22 10:15:35;;;;;;;;;;;22.50;73.40;;;;;;4777724;29;19937;-78
2023/05/22 10:18:02;;;;;;;;;;;22.40;72.20;;;;;;4791493;29;20026;-77
2023/05/22 10:20:29;;;;;;;;;;;22.50;72.30;;;;;;4759050;29;20296;-79
2023/05/22 10:22:57;;;;;;;;;;;22.50;72.30;;;;;;4789544;29;19936;-78
2023/05/22 10:25:27;;;;;;;;;;;22.50;73.50;;;;;;4782019;29;20588;-77
2023/05/22 10:27:54;;;;;;;;;;;22.60;73.70;;;;;;4793066;29;19955;-78
2023/05/22 10:30:22;;;;;;;;;;;22.50;73.10;;;;;;4799256;29;19936;-77
2023/05/22 10:33:15;;;;;;;;;;;22.60;73.80;;;;;;4785444;29;19943;-79
2023/05/22 10:35:42;;;;;;;;;;;22.60;71.40;;;;;;4786649;29;19936;-79
2023/05/22 10:38:28;;;;;;;;;;;22.70;74.90;;;;;;4784847;29;19937;-79
2023/05/22 10:40:56;;;;;;;;;;;22.70;70.00;;;;;;4787938;29;20708;-78
2023/05/22 10:43:23;;;;;;;;;;;22.50;69.00;;;;;;4787009;29;19975;-78
2023/05/22 10:46:00;;;;;;;;;;;22.60;72.10;;;;;;4814828;29;20381;-79
2023/05/22 10:48:27;;;;;;;;;;;22.50;70.20;;;;;;4817781;29;19933;-79
2023/05/22 10:50:54;;;;;;;;;;;22.70;72.90;;;;;;4821825;29;22684;-79
2023/05/22 10:53:22;;;;;;;;;;;22.80;72.60;;;;;;4807090;29;19929;-78
2023/05/22 10:55:50;;;;;;;;;;;22.90;70.70;;;;;;4826559;29;19951;-78
2023/05/22 10:58:18;;;;;;;;;;;23.00;72.10;;;;;;4826757;29;19928;-78
2023/05/22 11:00:45;;;;;;;;;;;22.90;71.30;;;;;;4824481;29;19940;-78
2023/05/22 11:03:12;;;;;;;;;;;23.00;72.00;;;;;;4818064;29;19936;-77
2023/05/22 11:05:50;;;;;;;;;;;23.00;71.60;;;;;;4818112;29;19936;-78
2023/05/22 11:08:17;;;;;;;;;;;23.10;72.40;;;;;;4826743;29;19928;-80
2023/05/22 11:10:51;;;;;;;;;;;22.90;69.70;;;;;;4829151;29;20036;-79
2023/05/22 11:13:18;;;;;;;;;;;23.00;69.70;;;;;;4824294;29;19928;-78
2023/05/22 11:15:46;;;;;;;;;;;23.10;70.80;;;;;;4824011;29;20295;-79
2023/05/22 11:18:15;;;;;;;;;;;23.10;71.60;;;;;;4811078;29;19977;-79
2023/05/22 11:20:43;;;;;;;;;;;23.10;71.00;;;;;;4826534;29;19960;-78
2023/05/22 11:23:10;;;;;;;;;;;23.10;71.50;;;;;;4821236;29;19941;-78
2023/05/22 11:25:38;;;;;;;;;;;23.20;72.30;;;;;;4823678;29;19943;-80
2023/05/22 11:28:06;;;;;;;;;;;23.20;71.50;;;;;;4790846;29;20958;-78
2023/05/22 11:30:33;;;;;;;;;;;23.10;67.40;;;;;;4828292;29;20396;-78
2023/05/22 11:33:01;;;;;;;;;;;23.20;69.20;;;;;;4796918;29;19928;-77
2023/05/22 11:35:28;;;;;;;;;;;23.20;68.80;;;;;;4819593;29;19928;-78
2023/05/22 11:37:55;;;;;;;;;;;23.20;68.00;;;;;;4813884;29;19933;-78
2023/05/22 11:40:24;;;;;;;;;;;23.20;69.20;;;;;;4827581;29;19941;-79
2023/05/22 11:42:51;;;;;;;;;;;23.30;70.00;;;;;;4824015;29;20412;-78
2023/05/22 11:45:18;;;;;;;;;;;23.30;67.90;;;;;;4813293;29;19936;-78
2023/05/22 11:47:45;;;;;;;;;;;23.30;68.00;;;;;;4819459;29;20484;-78
2023/05/22 11:50:13;;;;;;;;;;;23.30;67.90;;;;;;4824025;29;19936;-78
2023/05/22 11:52:48;;;;;;;;;;;23.30;68.10;;;;;;4828200;29;19929;-79
2023/05/22 11:55:16;;;;;;;;;;;23.20;67.60;;;;;;4818656;29;19937;-79
2023/05/22 11:57:43;;;;;;;;;;;23.20;67.00;;;;;;4783976;29;20029;-79
2023/05/22 12:00:10;;;;;;;;;;;23.30;68.90;;;;;;4772507;29;19937;-79
2023/05/22 12:02:37;;;;;;;;;;;23.50;70.70;;;;;;4785675;29;20001;-78
2023/05/22 12:05:08;;;;;;;;;;;23.40;69.30;;;;;;4770163;29;20426;-78
2023/05/22 12:07:36;;;;;;;;;;;23.50;70.80;;;;;;4785482;29;19936;-79
2023/05/22 12:10:04;;;;;;;;;;;23.50;72.00;;;;;;4753773;29;19944;-78
2023/05/22 12:12:31;;;;;;;;;;;23.60;71.00;;;;;;4790686;29;19929;-78
2023/05/22 12:14:58;;;;;;;;;;;23.70;69.60;;;;;;4783518;29;19985;-77
2023/05/22 12:17:27;;;;;;;;;;;23.70;70.10;;;;;;4782151;29;20681;-78
2023/05/22 12:19:54;;;;;;;;;;;23.70;71.60;;;;;;4786144;29;20039;-79
2023/05/22 12:22:25;;;;;;;;;;;23.70;68.40;;;;;;4771055;29;20701;-78
2023/05/22 12:24:52;;;;;;;;;;;23.60;67.60;;;;;;4797052;29;19936;-79
2023/05/22 12:27:19;;;;;;;;;;;23.70;71.20;;;;;;4786407;29;20431;-79
2023/05/22 12:29:46;;;;;;;;;;;23.80;68.80;;;;;;4784716;29;19940;-78
2023/05/22 12:32:13;;;;;;;;;;;23.90;68.30;;;;;;4786936;29;20028;-78
2023/05/22 12:34:44;;;;;;;;;;;23.70;66.90;;;;;;4778473;29;19959;-78
2023/05/22 12:37:17;;;;;;;;;;;23.80;68.50;;;;;;4798711;29;19936;-79
2023/05/22 12:39:55;;;;;;;;;;;23.80;67.80;;;;;;4794178;29;19937;-80
2023/05/22 12:42:23;;;;;;;;;;;23.80;69.60;;;;;;4750790;29;20016;-79
2023/05/22 12:44:52;;;;;;;;;;;23.80;68.40;;;;;;4779654;29;19936;-79
2023/05/22 12:47:19;;;;;;;;;;;23.80;68.20;;;;;;4764470;29;19992;-79
2023/05/22 12:49:46;;;;;;;;;;;24.00;71.10;;;;;;4762496;29;19979;-79
2023/05/22 12:52:13;;;;;;;;;;;24.00;68.90;;;;;;4765110;29;20019;-78
2023/05/22 12:54:40;;;;;;;;;;;24.00;68.40;;;;;;4784747;29;19944;-78
2023/05/22 12:57:07;;;;;;;;;;;23.90;68.70;;;;;;4784759;29;19944;-78
2023/05/22 12:59:36;;;;;;;;;;;24.00;70.80;;;;;;4779490;29;20172;-78
2023/05/22 13:02:04;;;;;;;;;;;24.20;71.50;;;;;;4788979;29;20459;-79
2023/05/22 13:04:31;;;;;;;;;;;24.30;72.10;;;;;;4781022;29;19929;-78
2023/05/22 13:06:58;;;;;;;;;;;24.30;69.90;;;;;;4787355;29;19943;-79
2023/05/22 13:09:25;;;;;;;;;;;24.20;67.90;;;;;;4773225;29;19986;-78
2023/05/22 13:11:52;;;;;;;;;;;24.10;68.20;;;;;;4773228;29;19943;-78
2023/05/22 13:14:20;;;;;;;;;;;24.10;68.70;;;;;;4774755;29;20096;-78
2023/05/22 13:16:47;;;;;;;;;;;24.20;68.30;;;;;;4761841;29;19943;-79
2023/05/22 13:19:14;;;;;;;;;;;24.30;71.10;;;;;;4770270;29;20108;-78
2023/05/22 13:21:41;;;;;;;;;;;24.30;67.50;;;;;;4787185;29;22607;-79
2023/05/22 13:24:08;;;;;;;;;;;24.40;69.50;;;;;;4776675;29;20344;-78
2023/05/22 13:26:35;;;;;;;;;;;24.30;65.30;;;;;;4785386;29;19937;-79
2023/05/22 13:29:02;;;;;;;;;;;24.40;65.70;;;;;;4769508;29;19976;-78
2023/05/22 13:31:32;;;;;;;;;;;24.40;68.10;;;;;;4785959;29;19933;-79
2023/05/22 13:33:59;;;;;;;;;;;24.50;68.10;;;;;;4784428;29;19978;-79
2023/05/22 13:36:29;;;;;;;;;;;24.50;68.30;;;;;;4776740;29;20008;-79
2023/05/22 13:38:56;;;;;;;;;;;24.50;68.40;;;;;;4784219;29;19959;-79
2023/05/22 13:41:24;;;;;;;;;;;24.40;67.40;;;;;;4786216;29;19932;-79
2023/05/22 13:43:51;;;;;;;;;;;24.50;67.90;;;;;;4782379;29;19944;-79
2023/05/22 13:46:19;;;;;;;;;;;24.40;66.50;;;;;;4771539;29;19943;-79
2023/05/22 13:48:47;;;;;;;;;;;24.40;67.00;;;;;;4782563;29;20111;-78
2023/05/22 13:51:14;;;;;;;;;;;24.40;68.20;;;;;;4774365;29;19937;-78
2023/05/22 13:53:41;;;;;;;;;;;24.40;68.30;;;;;;4794207;29;19932;-78
2023/05/22 13:56:08;;;;;;;;;;;24.50;67.70;;;;;;4776071;29;20380;-78
2023/05/22 13:58:35;;;;;;;;;;;24.50;67.80;;;;;;4787383;29;20778;-79
2023/05/22 14:01:02;;;;;;;;;;;24.50;66.50;;;;;;4773878;29;19928;-79
2023/05/22 14:03:29;;;;;;;;;;;24.50;67.10;;;;;;4778982;29;19993;-79
2023/05/22 14:05:56;;;;;;;;;;;24.60;67.80;;;;;;4779004;29;19943;-78
2023/05/22 14:08:23;;;;;;;;;;;24.50;66.10;;;;;;4786603;29;19937;-78
2023/05/22 14:10:50;;;;;;;;;;;24.60;65.70;;;;;;4773550;29;20020;-79
2023/05/22 14:13:18;;;;;;;;;;;24.60;64.90;;;;;;4780695;29;22449;-79
2023/05/22 14:15:48;;;;;;;;;;;24.50;67.40;;;;;;4745376;29;19975;-79
2023/05/22 14:18:15;;;;;;;;;;;24.50;68.20;;;;;;4794175;29;20249;-79
2023/05/22 14:20:43;;;;;;;;;;;24.70;68.00;;;;;;4796196;29;19943;-79
2023/05/22 14:23:11;;;;;;;;;;;24.70;69.20;;;;;;4777833;29;19944;-79
2023/05/22 14:25:44;;;;;;;;;;;24.70;69.10;;;;;;4768271;29;22795;-80